Estación Meteorológica Peña el Pijo (Robertgarden) [ 01/30/23 15:40:09 CET ]

Fecha Hora Presion(HPa) Temp (°C) Humedad % Rocio (°C) Viento ( m/s) Direccion Lluvia 1Hora(mm) Lluvia 24H(mm) LLuvia Total(mm)
2012-Apr-19 01:01:15 998.900 7.5 65 1.3 0.6 ENE     158.50
2012-Apr-19 02:01:16 998.600 7.6 65 1.4 0.7 SSE     158.50
2012-Apr-19 03:01:44 997.800 7.2 69 1.9 2.1 E     158.50
2012-Apr-19 04:07:03 997.100 6.3 74 2.0         158.50
2012-Apr-19 05:01:14 996.800 5.8 77 2.1 1.4 E     158.50
2012-Apr-19 06:01:14 996.500 5.6 78 2.0 1.8 S     158.50
2012-Apr-19 07:01:18 995.700 5.4 78 1.8         158.50
2012-Apr-19 08:01:17 996.100 5.8 77 2.1 1.2 SE     158.50
2012-Apr-19 09:01:13 996.800 6.4 74 2.1         158.50
2012-Apr-19 10:01:13 997.000 6.9 72 2.2 1.9 SW     158.50
2012-Apr-19 11:01:16 997.400 8.9 67 3.1 0.5 SSW     158.50
2012-Apr-19 12:01:16 997.900 10.9 59 3.2 3.7 SSE     158.50
2012-Apr-19 13:01:18 998.000 11.2 57 2.9 1.4 SSE     158.50
2012-Apr-19 14:01:12 997.700 10.2 61 3.0 3.7 ESE     158.50
2012-Apr-19 15:01:13 997.600 12.4 55 3.6 3.1 SSE     158.50
2012-Apr-19 16:01:16 997.500 12.1 55 3.3 1.8 SE     158.50
2012-Apr-19 17:01:13 997.200 11.6 57 3.3 1.5 SE     158.50
2012-Apr-19 18:01:12 996.900 10.6 61 3.4 1.9 NNE     158.50
2012-Apr-19 19:01:14 996.900 10.8 62 3.8 1.7 SSE     158.50
2012-Apr-19 20:01:12 997.700 9.5 67 3.6         158.50
2012-Apr-19 21:01:17 998.200 9.4 67 3.5 1.6 SSW     158.50
2012-Apr-19 22:01:12 998.900 9.5 66 3.4 1.4 NE     158.50
2012-Apr-19 23:01:20 999.700 9.4 66 3.3 1.3 E     158.50

Temperatura Máxima:12°    Temperatura Mínima:
Presión Máxima:999.700 Hpa    Presión Mínima:995.700 Hpa


Volver